N737M LSZB-LFSB
Flight info
| Callsign | N737M |
|---|---|
| Flight time | 0h 18m |
| Altitude | 10000 |
| Route | MEBOX Z142 BALIR/N0277F080 T52 LUMEL |
| Aircraft | B738/M-SDE2E3FGHIRWXY/LB1 |
Departure
| Time | 2026-04-21 16:54 |
|---|---|
| Airport | Bern Airport (LSZB) |
Arrival
| Time | 2026-04-21 17:12 |
|---|---|
| Airport | EuroAirport Basel–Mulhouse–Freiburg (LFSB) |
| Time | Latitude | Longitude | Altitude | Speed | Heading |
|---|---|---|---|---|---|
| 2026-04-21 16:41 | 46.90986 | 7.50434 | 1680 ft | 0 kts | 320° |
| 2026-04-21 16:49 | 46.90989 | 7.50426 | 1680 ft | 1 kts | 287° |
| 2026-04-21 16:49 | 46.90982 | 7.50419 | 1687 ft | 1 kts | 209° |
| 2026-04-21 16:49 | 46.90966 | 7.50415 | 1687 ft | 3 kts | 191° |
| 2026-04-21 16:50 | 46.90938 | 7.50405 | 1682 ft | 5 kts | 207° |
| 2026-04-21 16:50 | 46.90908 | 7.50368 | 1679 ft | 7 kts | 213° |
| 2026-04-21 16:50 | 46.90896 | 7.50363 | 1678 ft | 3 kts | 191° |
| 2026-04-21 16:50 | 46.90868 | 7.50380 | 1680 ft | 5 kts | 143° |
| 2026-04-21 16:51 | 46.90834 | 7.50421 | 1684 ft | 7 kts | 139° |
| 2026-04-21 16:51 | 46.90787 | 7.50479 | 1685 ft | 11 kts | 140° |
| 2026-04-21 16:51 | 46.90745 | 7.50548 | 1676 ft | 6 kts | 126° |
| 2026-04-21 16:51 | 46.90722 | 7.50579 | 1683 ft | 0 kts | 159° |
| 2026-04-21 16:52 | 46.90721 | 7.50579 | 1683 ft | 0 kts | 166° |
| 2026-04-21 16:52 | 46.90720 | 7.50578 | 1680 ft | 0 kts | 185° |
| 2026-04-21 16:52 | 46.90712 | 7.50570 | 1686 ft | 0 kts | 220° |
| 2026-04-21 16:52 | 46.90708 | 7.50558 | 1677 ft | 2 kts | 250° |
| 2026-04-21 16:53 | 46.90714 | 7.50546 | 1683 ft | 1 kts | 324° |
| 2026-04-21 16:53 | 46.90739 | 7.50527 | 1676 ft | 15 kts | 324° |
| 2026-04-21 16:53 | 46.90941 | 7.50290 | 1682 ft | 58 kts | 320° |
| 2026-04-21 16:53 | 46.91452 | 7.49660 | 1679 ft | 135 kts | 319° |
| 2026-04-21 16:54 | 46.92302 | 7.48627 | 2008 ft | 172 kts | 326° |
| 2026-04-21 16:54 | 46.93258 | 7.47511 | 2952 ft | 170 kts | 324° |
| 2026-04-21 16:54 | 46.94119 | 7.46505 | 3828 ft | 153 kts | 326° |
| 2026-04-21 16:54 | 46.95029 | 7.45421 | 4215 ft | 184 kts | 324° |
| 2026-04-21 16:55 | 46.96036 | 7.44205 | 5089 ft | 196 kts | 323° |
| 2026-04-21 16:55 | 46.97257 | 7.43077 | 5374 ft | 224 kts | 337° |
| 2026-04-21 16:55 | 46.98827 | 7.42525 | 5851 ft | 239 kts | 358° |
| 2026-04-21 16:55 | 47.00525 | 7.42453 | 6504 ft | 249 kts | 359° |
| 2026-04-21 16:56 | 47.02277 | 7.42406 | 7272 ft | 251 kts | 358° |
| 2026-04-21 16:56 | 47.04007 | 7.42360 | 8091 ft | 253 kts | 356° |
| 2026-04-21 16:56 | 47.05789 | 7.42306 | 8899 ft | 257 kts | 356° |
| 2026-04-21 16:56 | 47.07593 | 7.42244 | 9650 ft | 261 kts | 355° |
| 2026-04-21 16:57 | 47.09455 | 7.42170 | 10011 ft | 275 kts | 355° |
| 2026-04-21 16:57 | 47.11463 | 7.42084 | 10056 ft | 307 kts | 355° |
| 2026-04-21 16:57 | 47.13666 | 7.41987 | 10057 ft | 319 kts | 355° |
| 2026-04-21 16:57 | 47.15901 | 7.41892 | 10065 ft | 321 kts | 356° |
| 2026-04-21 16:58 | 47.18122 | 7.41799 | 10055 ft | 321 kts | 355° |
| 2026-04-21 16:58 | 47.20362 | 7.41702 | 10058 ft | 321 kts | 355° |
| 2026-04-21 16:58 | 47.22575 | 7.41605 | 10039 ft | 312 kts | 356° |
| 2026-04-21 16:58 | 47.24669 | 7.41518 | 10041 ft | 297 kts | 355° |
| 2026-04-21 16:59 | 47.26691 | 7.41430 | 10033 ft | 283 kts | 355° |
| 2026-04-21 16:59 | 47.28629 | 7.41344 | 10031 ft | 274 kts | 355° |
| 2026-04-21 16:59 | 47.30524 | 7.41257 | 10052 ft | 272 kts | 355° |
| 2026-04-21 16:59 | 47.32406 | 7.41167 | 10038 ft | 272 kts | 355° |
| 2026-04-21 17:00 | 47.34326 | 7.41075 | 9672 ft | 279 kts | 355° |
| 2026-04-21 17:00 | 47.36261 | 7.40985 | 9409 ft | 277 kts | 355° |
| 2026-04-21 17:00 | 47.37564 | 7.40924 | 9255 ft | 277 kts | 355° |
| 2026-04-21 17:00 | 47.40139 | 7.40804 | 8961 ft | 281 kts | 355° |
| 2026-04-21 17:01 | 47.42075 | 7.40716 | 8718 ft | 282 kts | 355° |
| 2026-04-21 17:01 | 47.44028 | 7.40627 | 8485 ft | 280 kts | 356° |
| 2026-04-21 17:01 | 47.45974 | 7.40538 | 8267 ft | 278 kts | 356° |
| 2026-04-21 17:01 | 47.47872 | 7.40450 | 8075 ft | 272 kts | 356° |
| 2026-04-21 17:02 | 47.49745 | 7.40365 | 7846 ft | 265 kts | 356° |
| 2026-04-21 17:02 | 47.51580 | 7.40278 | 7646 ft | 261 kts | 355° |
| 2026-04-21 17:02 | 47.53376 | 7.40185 | 7668 ft | 257 kts | 356° |
| 2026-04-21 17:02 | 47.55167 | 7.40180 | 7404 ft | 259 kts | 358° |
| 2026-04-21 17:03 | 47.56945 | 7.40197 | 7148 ft | 254 kts | 356° |
| 2026-04-21 17:03 | 47.58646 | 7.39646 | 6898 ft | 247 kts | 338° |
| 2026-04-21 17:03 | 47.60217 | 7.38684 | 6648 ft | 243 kts | 335° |
| 2026-04-21 17:03 | 47.61757 | 7.37680 | 6388 ft | 240 kts | 335° |
| 2026-04-21 17:04 | 47.63282 | 7.36668 | 6137 ft | 240 kts | 335° |
| 2026-04-21 17:04 | 47.64794 | 7.35653 | 5944 ft | 238 kts | 335° |
| 2026-04-21 17:04 | 47.66311 | 7.34621 | 5792 ft | 243 kts | 335° |
| 2026-04-21 17:04 | 47.67849 | 7.33564 | 5628 ft | 248 kts | 335° |
| 2026-04-21 17:05 | 47.69420 | 7.32475 | 5475 ft | 248 kts | 335° |
| 2026-04-21 17:05 | 47.71051 | 7.31680 | 5275 ft | 247 kts | 356° |
| 2026-04-21 17:05 | 47.72716 | 7.32134 | 5063 ft | 246 kts | 26° |
| 2026-04-21 17:05 | 47.73999 | 7.33765 | 4766 ft | 242 kts | 55° |
| 2026-04-21 17:06 | 47.74747 | 7.35929 | 4511 ft | 235 kts | 64° |
| 2026-04-21 17:06 | 47.75246 | 7.38209 | 4181 ft | 233 kts | 84° |
| 2026-04-21 17:06 | 47.74813 | 7.40523 | 3818 ft | 239 kts | 123° |
| 2026-04-21 17:06 | 47.73617 | 7.42207 | 3532 ft | 235 kts | 140° |
| 2026-04-21 17:07 | 47.72724 | 7.43109 | 3332 ft | 233 kts | 144° |
| 2026-04-21 17:07 | 47.70863 | 7.44654 | 2897 ft | 221 kts | 151° |
| 2026-04-21 17:07 | 47.69521 | 7.45584 | 2607 ft | 210 kts | 152° |
| 2026-04-21 17:07 | 47.68228 | 7.46478 | 2333 ft | 201 kts | 152° |
| 2026-04-21 17:08 | 47.66972 | 7.47355 | 2069 ft | 197 kts | 151° |
| 2026-04-21 17:08 | 47.65723 | 7.48229 | 1798 ft | 199 kts | 152° |
| 2026-04-21 17:08 | 47.64573 | 7.49323 | 1605 ft | 191 kts | 130° |
| 2026-04-21 17:08 | 47.63843 | 7.50884 | 1777 ft | 190 kts | 113° |
| 2026-04-21 17:09 | 47.62664 | 7.54475 | 1848 ft | 193 kts | 110° |
| 2026-04-21 17:09 | 47.62364 | 7.56285 | 1718 ft | 172 kts | 80° |
| 2026-04-21 17:09 | 47.62607 | 7.57965 | 1704 ft | 167 kts | 73° |
| 2026-04-21 17:10 | 47.62456 | 7.59585 | 1739 ft | 171 kts | 131° |
| 2026-04-21 17:10 | 47.61250 | 7.60142 | 1786 ft | 191 kts | 184° |
| 2026-04-21 17:10 | 47.60161 | 7.59340 | 1690 ft | 165 kts | 234° |
| 2026-04-21 17:10 | 47.59720 | 7.57985 | 1715 ft | 130 kts | 257° |
| 2026-04-21 17:11 | 47.59546 | 7.56695 | 1624 ft | 131 kts | 267° |
| 2026-04-21 17:11 | 47.59376 | 7.55306 | 1310 ft | 141 kts | 262° |
| 2026-04-21 17:11 | 47.59140 | 7.53891 | 981 ft | 142 kts | 262° |
| 2026-04-21 17:11 | 47.58933 | 7.52589 | 893 ft | 118 kts | 261° |
| 2026-04-21 17:12 | 47.58809 | 7.51705 | 899 ft | 66 kts | 266° |
| 2026-04-21 17:12 | 47.58903 | 7.51670 | 889 ft | 0 kts | 358° |
| 2026-04-21 17:12 | 47.58916 | 7.51670 | 889 ft | 4 kts | 1° |
| 2026-04-21 17:12 | 47.58950 | 7.51689 | 889 ft | 7 kts | 30° |
| 2026-04-21 17:13 | 47.58991 | 7.51742 | 890 ft | 9 kts | 43° |
| 2026-04-21 17:13 | 47.59045 | 7.51817 | 892 ft | 13 kts | 43° |
| 2026-04-21 17:13 | 47.59120 | 7.51926 | 890 ft | 17 kts | 46° |
| 2026-04-21 17:13 | 47.59214 | 7.52069 | 890 ft | 21 kts | 45° |
| 2026-04-21 17:14 | 47.59299 | 7.52257 | 887 ft | 23 kts | 64° |
| 2026-04-21 17:14 | 47.59363 | 7.52469 | 888 ft | 22 kts | 66° |
| 2026-04-21 17:14 | 47.59429 | 7.52670 | 893 ft | 21 kts | 63° |
| 2026-04-21 17:14 | 47.59469 | 7.52795 | 895 ft | 9 kts | 66° |
| 2026-04-21 17:15 | 47.59473 | 7.52869 | 894 ft | 0 kts | 110° |